sensor_id;sensor_type;location;lat;lon;timestamp;P1;durP1;ratioP1;P2;durP2;ratioP2
19679;SDS011;9989;48.962;9.182;2023-02-22T00:00:10;16.07;;;9.57;;
19679;SDS011;9989;48.962;9.182;2023-02-22T00:02:44;15.53;;;9.23;;
19679;SDS011;9989;48.962;9.182;2023-02-22T00:05:12;17.17;;;9.33;;
19679;SDS011;9989;48.962;9.182;2023-02-22T00:07:41;15.73;;;9.47;;
19679;SDS011;9989;48.962;9.182;2023-02-22T00:10:08;15.67;;;9.63;;
19679;SDS011;9989;48.962;9.182;2023-02-22T00:12:38;16.10;;;9.03;;
19679;SDS011;9989;48.962;9.182;2023-02-22T00:15:04;17.50;;;10.40;;
19679;SDS011;9989;48.962;9.182;2023-02-22T00:17:30;15.53;;;9.87;;
19679;SDS011;9989;48.962;9.182;2023-02-22T00:19:56;19.00;;;10.10;;
19679;SDS011;9989;48.962;9.182;2023-02-22T00:22:22;14.93;;;10.00;;
19679;SDS011;9989;48.962;9.182;2023-02-22T00:24:47;17.87;;;11.63;;
19679;SDS011;9989;48.962;9.182;2023-02-22T00:27:14;18.17;;;11.57;;
19679;SDS011;9989;48.962;9.182;2023-02-22T00:29:44;20.27;;;10.97;;
19679;SDS011;9989;48.962;9.182;2023-02-22T00:32:10;20.07;;;10.67;;
19679;SDS011;9989;48.962;9.182;2023-02-22T00:34:36;21.03;;;13.83;;
19679;SDS011;9989;48.962;9.182;2023-02-22T00:37:02;21.33;;;14.40;;
19679;SDS011;9989;48.962;9.182;2023-02-22T00:39:28;25.10;;;16.00;;
19679;SDS011;9989;48.962;9.182;2023-02-22T00:41:54;24.03;;;16.03;;
19679;SDS011;9989;48.962;9.182;2023-02-22T00:44:20;20.57;;;16.13;;
19679;SDS011;9989;48.962;9.182;2023-02-22T00:46:46;22.63;;;14.23;;
19679;SDS011;9989;48.962;9.182;2023-02-22T00:49:13;21.43;;;15.20;;
19679;SDS011;9989;48.962;9.182;2023-02-22T00:51:42;27.87;;;16.33;;
19679;SDS011;9989;48.962;9.182;2023-02-22T00:54:07;22.13;;;14.07;;
19679;SDS011;9989;48.962;9.182;2023-02-22T00:56:34;18.70;;;12.93;;
19679;SDS011;9989;48.962;9.182;2023-02-22T00:59:01;16.50;;;9.13;;
19679;SDS011;9989;48.962;9.182;2023-02-22T01:01:29;16.50;;;10.20;;
19679;SDS011;9989;48.962;9.182;2023-02-22T01:03:55;15.67;;;10.57;;
19679;SDS011;9989;48.962;9.182;2023-02-22T01:06:20;16.80;;;9.03;;
19679;SDS011;9989;48.962;9.182;2023-02-22T01:08:46;15.73;;;8.60;;
19679;SDS011;9989;48.962;9.182;2023-02-22T01:11:13;14.53;;;9.20;;
19679;SDS011;9989;48.962;9.182;2023-02-22T01:13:40;14.73;;;7.73;;
19679;SDS011;9989;48.962;9.182;2023-02-22T01:16:05;13.53;;;7.83;;
19679;SDS011;9989;48.962;9.182;2023-02-22T01:18:33;15.60;;;8.80;;
19679;SDS011;9989;48.962;9.182;2023-02-22T01:20:59;16.97;;;9.17;;
19679;SDS011;9989;48.962;9.182;2023-02-22T01:23:28;18.93;;;8.83;;
19679;SDS011;9989;48.962;9.182;2023-02-22T01:25:53;14.57;;;8.83;;
19679;SDS011;9989;48.962;9.182;2023-02-22T01:28:19;13.53;;;8.40;;
19679;SDS011;9989;48.962;9.182;2023-02-22T01:30:46;14.70;;;8.03;;
19679;SDS011;9989;48.962;9.182;2023-02-22T01:33:13;15.20;;;8.27;;
19679;SDS011;9989;48.962;9.182;2023-02-22T01:35:39;14.97;;;8.13;;
19679;SDS011;9989;48.962;9.182;2023-02-22T01:38:07;16.03;;;8.20;;
19679;SDS011;9989;48.962;9.182;2023-02-22T01:40:38;14.63;;;8.03;;
19679;SDS011;9989;48.962;9.182;2023-02-22T01:45:58;15.00;;;8.40;;
19679;SDS011;9989;48.962;9.182;2023-02-22T01:48:32;13.30;;;8.13;;
19679;SDS011;9989;48.962;9.182;2023-02-22T01:51:10;14.27;;;7.90;;
19679;SDS011;9989;48.962;9.182;2023-02-22T01:53:50;13.20;;;7.90;;
19679;SDS011;9989;48.962;9.182;2023-02-22T01:56:48;14.50;;;8.70;;
19679;SDS011;9989;48.962;9.182;2023-02-22T01:59:35;21.77;;;8.50;;
19679;SDS011;9989;48.962;9.182;2023-02-22T02:02:03;13.23;;;7.87;;
19679;SDS011;9989;48.962;9.182;2023-02-22T02:04:29;14.83;;;9.27;;
19679;SDS011;9989;48.962;9.182;2023-02-22T02:07:00;14.63;;;8.23;;
19679;SDS011;9989;48.962;9.182;2023-02-22T02:12:01;14.57;;;8.70;;
19679;SDS011;9989;48.962;9.182;2023-02-22T02:14:29;16.43;;;9.33;;
19679;SDS011;9989;48.962;9.182;2023-02-22T02:17:04;15.90;;;8.60;;
19679;SDS011;9989;48.962;9.182;2023-02-22T02:30:46;13.73;;;7.73;;
19679;SDS011;9989;48.962;9.182;2023-02-22T02:33:28;19.40;;;9.77;;
19679;SDS011;9989;48.962;9.182;2023-02-22T02:38:46;15.60;;;8.23;;
19679;SDS011;9989;48.962;9.182;2023-02-22T02:41:46;13.93;;;8.43;;
19679;SDS011;9989;48.962;9.182;2023-02-22T02:47:11;16.93;;;9.00;;
19679;SDS011;9989;48.962;9.182;2023-02-22T02:52:38;16.23;;;9.07;;
19679;SDS011;9989;48.962;9.182;2023-02-22T02:55:05;16.30;;;9.67;;
19679;SDS011;9989;48.962;9.182;2023-02-22T02:57:32;15.40;;;8.63;;
19679;SDS011;9989;48.962;9.182;2023-02-22T02:59:57;18.30;;;9.57;;
19679;SDS011;9989;48.962;9.182;2023-02-22T03:08:08;15.17;;;8.90;;
19679;SDS011;9989;48.962;9.182;2023-02-22T03:13:08;16.83;;;9.33;;
19679;SDS011;9989;48.962;9.182;2023-02-22T03:19:13;15.43;;;9.97;;
19679;SDS011;9989;48.962;9.182;2023-02-22T03:26:56;13.50;;;8.53;;
19679;SDS011;9989;48.962;9.182;2023-02-22T03:29:27;14.43;;;8.67;;
19679;SDS011;9989;48.962;9.182;2023-02-22T03:32:00;17.10;;;9.30;;
19679;SDS011;9989;48.962;9.182;2023-02-22T03:34:34;16.47;;;9.90;;
19679;SDS011;9989;48.962;9.182;2023-02-22T03:37:06;16.20;;;9.37;;
19679;SDS011;9989;48.962;9.182;2023-02-22T03:39:39;15.63;;;8.77;;
19679;SDS011;9989;48.962;9.182;2023-02-22T03:42:07;18.10;;;8.90;;
19679;SDS011;9989;48.962;9.182;2023-02-22T03:44:37;13.57;;;8.50;;
19679;SDS011;9989;48.962;9.182;2023-02-22T03:47:08;14.47;;;8.50;;
19679;SDS011;9989;48.962;9.182;2023-02-22T03:52:39;15.90;;;9.63;;
19679;SDS011;9989;48.962;9.182;2023-02-22T03:55:07;16.40;;;9.47;;
19679;SDS011;9989;48.962;9.182;2023-02-22T03:57:35;14.70;;;8.40;;
19679;SDS011;9989;48.962;9.182;2023-02-22T04:00:05;14.20;;;8.80;;
19679;SDS011;9989;48.962;9.182;2023-02-22T04:02:33;16.20;;;9.43;;
19679;SDS011;9989;48.962;9.182;2023-02-22T04:04:59;15.33;;;8.50;;
19679;SDS011;9989;48.962;9.182;2023-02-22T04:07:31;18.13;;;8.37;;
19679;SDS011;9989;48.962;9.182;2023-02-22T04:09:56;14.40;;;8.43;;
19679;SDS011;9989;48.962;9.182;2023-02-22T04:12:22;14.83;;;9.40;;
19679;SDS011;9989;48.962;9.182;2023-02-22T04:14:47;12.27;;;8.13;;
19679;SDS011;9989;48.962;9.182;2023-02-22T04:17:13;14.43;;;8.50;;
19679;SDS011;9989;48.962;9.182;2023-02-22T04:19:38;15.77;;;8.90;;
19679;SDS011;9989;48.962;9.182;2023-02-22T04:22:04;16.97;;;9.93;;
19679;SDS011;9989;48.962;9.182;2023-02-22T04:24:30;14.67;;;8.53;;
19679;SDS011;9989;48.962;9.182;2023-02-22T04:26:55;15.83;;;9.40;;
19679;SDS011;9989;48.962;9.182;2023-02-22T04:29:21;16.17;;;9.93;;
19679;SDS011;9989;48.962;9.182;2023-02-22T04:31:47;15.30;;;8.77;;
19679;SDS011;9989;48.962;9.182;2023-02-22T04:34:12;15.10;;;8.47;;
19679;SDS011;9989;48.962;9.182;2023-02-22T04:36:38;14.13;;;8.60;;
19679;SDS011;9989;48.962;9.182;2023-02-22T04:39:06;17.47;;;10.30;;
19679;SDS011;9989;48.962;9.182;2023-02-22T04:41:31;18.63;;;10.30;;
19679;SDS011;9989;48.962;9.182;2023-02-22T04:43:58;18.17;;;10.07;;
19679;SDS011;9989;48.962;9.182;2023-02-22T04:46:24;16.80;;;10.30;;
19679;SDS011;9989;48.962;9.182;2023-02-22T04:48:49;23.13;;;14.23;;
19679;SDS011;9989;48.962;9.182;2023-02-22T04:51:15;19.80;;;11.87;;
19679;SDS011;9989;48.962;9.182;2023-02-22T04:53:41;21.43;;;12.70;;
19679;SDS011;9989;48.962;9.182;2023-02-22T04:56:06;18.70;;;10.30;;
19679;SDS011;9989;48.962;9.182;2023-02-22T04:58:32;19.67;;;11.30;;
19679;SDS011;9989;48.962;9.182;2023-02-22T05:00:58;17.47;;;11.27;;
19679;SDS011;9989;48.962;9.182;2023-02-22T05:03:25;17.10;;;10.23;;
19679;SDS011;9989;48.962;9.182;2023-02-22T05:05:51;18.73;;;11.47;;
19679;SDS011;9989;48.962;9.182;2023-02-22T05:08:17;17.97;;;10.60;;
19679;SDS011;9989;48.962;9.182;2023-02-22T05:10:42;17.40;;;10.37;;
19679;SDS011;9989;48.962;9.182;2023-02-22T05:13:08;18.40;;;10.20;;
19679;SDS011;9989;48.962;9.182;2023-02-22T05:15:34;17.30;;;10.57;;
19679;SDS011;9989;48.962;9.182;2023-02-22T05:18:00;21.17;;;10.50;;
19679;SDS011;9989;48.962;9.182;2023-02-22T05:20:29;16.63;;;9.63;;
19679;SDS011;9989;48.962;9.182;2023-02-22T05:22:57;17.20;;;11.67;;
19679;SDS011;9989;48.962;9.182;2023-02-22T05:25:24;18.90;;;10.60;;
19679;SDS011;9989;48.962;9.182;2023-02-22T05:27:54;18.17;;;10.37;;
19679;SDS011;9989;48.962;9.182;2023-02-22T05:30:23;18.90;;;11.10;;
19679;SDS011;9989;48.962;9.182;2023-02-22T05:32:51;20.33;;;11.10;;
19679;SDS011;9989;48.962;9.182;2023-02-22T05:35:20;16.23;;;9.83;;
19679;SDS011;9989;48.962;9.182;2023-02-22T05:37:47;17.93;;;9.87;;
19679;SDS011;9989;48.962;9.182;2023-02-22T05:40:15;15.63;;;9.87;;
19679;SDS011;9989;48.962;9.182;2023-02-22T05:42:45;18.57;;;11.03;;
19679;SDS011;9989;48.962;9.182;2023-02-22T05:45:12;19.47;;;11.07;;
19679;SDS011;9989;48.962;9.182;2023-02-22T05:47:38;17.73;;;11.23;;
19679;SDS011;9989;48.962;9.182;2023-02-22T05:50:04;19.40;;;10.87;;
19679;SDS011;9989;48.962;9.182;2023-02-22T05:52:30;16.50;;;9.60;;
19679;SDS011;9989;48.962;9.182;2023-02-22T05:54:56;16.27;;;10.53;;
19679;SDS011;9989;48.962;9.182;2023-02-22T05:57:21;14.30;;;9.23;;
19679;SDS011;9989;48.962;9.182;2023-02-22T05:59:47;15.67;;;9.63;;
19679;SDS011;9989;48.962;9.182;2023-02-22T06:02:13;15.57;;;9.13;;
19679;SDS011;9989;48.962;9.182;2023-02-22T06:04:39;17.47;;;10.43;;
19679;SDS011;9989;48.962;9.182;2023-02-22T06:07:08;16.93;;;10.37;;
19679;SDS011;9989;48.962;9.182;2023-02-22T06:09:33;17.70;;;10.00;;
19679;SDS011;9989;48.962;9.182;2023-02-22T06:11:59;17.37;;;10.63;;
19679;SDS011;9989;48.962;9.182;2023-02-22T06:14:24;16.17;;;9.87;;
19679;SDS011;9989;48.962;9.182;2023-02-22T06:16:53;17.93;;;9.53;;
19679;SDS011;9989;48.962;9.182;2023-02-22T06:19:20;19.17;;;10.37;;
19679;SDS011;9989;48.962;9.182;2023-02-22T06:21:55;17.17;;;10.60;;
19679;SDS011;9989;48.962;9.182;2023-02-22T06:24:24;20.07;;;10.77;;
19679;SDS011;9989;48.962;9.182;2023-02-22T06:26:53;15.33;;;9.37;;
19679;SDS011;9989;48.962;9.182;2023-02-22T06:29:21;19.60;;;9.93;;
19679;SDS011;9989;48.962;9.182;2023-02-22T06:31:47;17.90;;;10.13;;
19679;SDS011;9989;48.962;9.182;2023-02-22T06:34:13;17.13;;;10.90;;
19679;SDS011;9989;48.962;9.182;2023-02-22T06:36:39;17.03;;;9.40;;
19679;SDS011;9989;48.962;9.182;2023-02-22T06:39:04;20.00;;;10.90;;
19679;SDS011;9989;48.962;9.182;2023-02-22T06:41:30;15.63;;;10.13;;
19679;SDS011;9989;48.962;9.182;2023-02-22T06:43:55;14.63;;;9.80;;
19679;SDS011;9989;48.962;9.182;2023-02-22T06:46:21;18.17;;;10.43;;
19679;SDS011;9989;48.962;9.182;2023-02-22T06:48:46;18.97;;;11.30;;
19679;SDS011;9989;48.962;9.182;2023-02-22T06:51:13;25.27;;;14.00;;
19679;SDS011;9989;48.962;9.182;2023-02-22T06:53:39;21.33;;;13.20;;
19679;SDS011;9989;48.962;9.182;2023-02-22T06:56:05;19.57;;;13.20;;
19679;SDS011;9989;48.962;9.182;2023-02-22T06:58:30;22.47;;;13.63;;
19679;SDS011;9989;48.962;9.182;2023-02-22T07:00:56;21.73;;;13.50;;
19679;SDS011;9989;48.962;9.182;2023-02-22T07:03:21;18.20;;;12.00;;
19679;SDS011;9989;48.962;9.182;2023-02-22T07:05:47;23.27;;;13.23;;
19679;SDS011;9989;48.962;9.182;2023-02-22T07:08:12;17.50;;;10.27;;
19679;SDS011;9989;48.962;9.182;2023-02-22T07:10:38;18.73;;;10.03;;
19679;SDS011;9989;48.962;9.182;2023-02-22T07:13:05;17.90;;;10.47;;
19679;SDS011;9989;48.962;9.182;2023-02-22T07:15:32;18.33;;;10.77;;
19679;SDS011;9989;48.962;9.182;2023-02-22T07:17:59;18.63;;;10.27;;
19679;SDS011;9989;48.962;9.182;2023-02-22T07:20:29;20.07;;;11.90;;
19679;SDS011;9989;48.962;9.182;2023-02-22T07:22:55;25.20;;;15.90;;
19679;SDS011;9989;48.962;9.182;2023-02-22T07:25:21;31.70;;;17.80;;
19679;SDS011;9989;48.962;9.182;2023-02-22T07:27:47;28.70;;;17.47;;
19679;SDS011;9989;48.962;9.182;2023-02-22T07:30:17;25.20;;;15.47;;
19679;SDS011;9989;48.962;9.182;2023-02-22T07:32:48;22.17;;;14.63;;
19679;SDS011;9989;48.962;9.182;2023-02-22T07:35:19;22.33;;;13.67;;
19679;SDS011;9989;48.962;9.182;2023-02-22T07:37:47;21.07;;;14.27;;
19679;SDS011;9989;48.962;9.182;2023-02-22T07:40:12;24.57;;;13.60;;
19679;SDS011;9989;48.962;9.182;2023-02-22T07:45:24;21.17;;;12.67;;
19679;SDS011;9989;48.962;9.182;2023-02-22T07:47:59;26.87;;;14.27;;
19679;SDS011;9989;48.962;9.182;2023-02-22T07:50:27;22.60;;;12.17;;
19679;SDS011;9989;48.962;9.182;2023-02-22T07:52:55;20.23;;;12.60;;
19679;SDS011;9989;48.962;9.182;2023-02-22T07:55:23;18.83;;;12.77;;
19679;SDS011;9989;48.962;9.182;2023-02-22T07:57:51;22.23;;;12.73;;
19679;SDS011;9989;48.962;9.182;2023-02-22T08:00:26;18.70;;;10.77;;
19679;SDS011;9989;48.962;9.182;2023-02-22T08:02:52;17.93;;;12.20;;
19679;SDS011;9989;48.962;9.182;2023-02-22T08:05:18;17.80;;;12.87;;
19679;SDS011;9989;48.962;9.182;2023-02-22T08:07:45;17.93;;;11.83;;
19679;SDS011;9989;48.962;9.182;2023-02-22T08:10:12;20.67;;;11.93;;
19679;SDS011;9989;48.962;9.182;2023-02-22T08:12:38;17.97;;;11.00;;
19679;SDS011;9989;48.962;9.182;2023-02-22T08:15:04;17.80;;;10.07;;
19679;SDS011;9989;48.962;9.182;2023-02-22T08:17:31;20.00;;;11.17;;
19679;SDS011;9989;48.962;9.182;2023-02-22T08:19:56;17.47;;;11.03;;
19679;SDS011;9989;48.962;9.182;2023-02-22T08:22:22;16.07;;;9.93;;
19679;SDS011;9989;48.962;9.182;2023-02-22T08:24:48;18.23;;;10.00;;
19679;SDS011;9989;48.962;9.182;2023-02-22T08:27:21;16.80;;;11.47;;
19679;SDS011;9989;48.962;9.182;2023-02-22T08:29:51;14.97;;;10.13;;
19679;SDS011;9989;48.962;9.182;2023-02-22T08:32:17;16.83;;;10.40;;
19679;SDS011;9989;48.962;9.182;2023-02-22T08:34:43;16.17;;;10.43;;
19679;SDS011;9989;48.962;9.182;2023-02-22T08:37:10;19.17;;;11.43;;
19679;SDS011;9989;48.962;9.182;2023-02-22T08:39:35;21.60;;;11.13;;
19679;SDS011;9989;48.962;9.182;2023-02-22T08:42:01;15.70;;;10.33;;
19679;SDS011;9989;48.962;9.182;2023-02-22T08:44:27;15.80;;;10.07;;
19679;SDS011;9989;48.962;9.182;2023-02-22T08:46:53;16.40;;;10.60;;
19679;SDS011;9989;48.962;9.182;2023-02-22T08:49:19;16.93;;;10.80;;
19679;SDS011;9989;48.962;9.182;2023-02-22T08:51:45;25.07;;;17.63;;
19679;SDS011;9989;48.962;9.182;2023-02-22T08:54:12;18.83;;;12.57;;
19679;SDS011;9989;48.962;9.182;2023-02-22T08:56:37;19.53;;;11.07;;
19679;SDS011;9989;48.962;9.182;2023-02-22T08:59:03;19.17;;;11.63;;
19679;SDS011;9989;48.962;9.182;2023-02-22T09:01:29;14.67;;;11.00;;
19679;SDS011;9989;48.962;9.182;2023-02-22T09:03:54;18.17;;;13.00;;
19679;SDS011;9989;48.962;9.182;2023-02-22T09:06:20;17.37;;;11.63;;
19679;SDS011;9989;48.962;9.182;2023-02-22T09:08:46;16.27;;;11.00;;
19679;SDS011;9989;48.962;9.182;2023-02-22T09:11:12;15.97;;;10.37;;
19679;SDS011;9989;48.962;9.182;2023-02-22T09:13:38;19.53;;;11.43;;
19679;SDS011;9989;48.962;9.182;2023-02-22T09:16:04;16.43;;;10.77;;
19679;SDS011;9989;48.962;9.182;2023-02-22T09:18:30;15.77;;;10.83;;
19679;SDS011;9989;48.962;9.182;2023-02-22T09:20:56;17.13;;;10.47;;
19679;SDS011;9989;48.962;9.182;2023-02-22T09:23:21;19.07;;;11.03;;
19679;SDS011;9989;48.962;9.182;2023-02-22T09:25:47;20.67;;;12.10;;
19679;SDS011;9989;48.962;9.182;2023-02-22T09:28:14;16.87;;;11.17;;
19679;SDS011;9989;48.962;9.182;2023-02-22T09:30:40;17.17;;;11.07;;
19679;SDS011;9989;48.962;9.182;2023-02-22T09:33:11;16.53;;;10.87;;
19679;SDS011;9989;48.962;9.182;2023-02-22T09:35:39;16.57;;;11.10;;
19679;SDS011;9989;48.962;9.182;2023-02-22T09:38:10;17.37;;;10.90;;
19679;SDS011;9989;48.962;9.182;2023-02-22T09:40:40;18.23;;;11.67;;
19679;SDS011;9989;48.962;9.182;2023-02-22T09:46:17;20.83;;;12.13;;
19679;SDS011;9989;48.962;9.182;2023-02-22T09:51:42;16.90;;;12.17;;
19679;SDS011;9989;48.962;9.182;2023-02-22T09:54:20;14.83;;;9.50;;
19679;SDS011;9989;48.962;9.182;2023-02-22T09:56:58;17.47;;;10.07;;
19679;SDS011;9989;48.962;9.182;2023-02-22T09:59:28;15.40;;;10.50;;
19679;SDS011;9989;48.962;9.182;2023-02-22T10:02:01;14.47;;;10.50;;
19679;SDS011;9989;48.962;9.182;2023-02-22T10:04:41;14.47;;;10.53;;
19679;SDS011;9989;48.962;9.182;2023-02-22T10:08:12;22.83;;;14.43;;
19679;SDS011;9989;48.962;9.182;2023-02-22T10:10:22;16.27;;;10.60;;
19679;SDS011;9989;48.962;9.182;2023-02-22T10:13:01;17.50;;;11.10;;
19679;SDS011;9989;48.962;9.182;2023-02-22T10:25:49;16.03;;;10.40;;
19679;SDS011;9989;48.962;9.182;2023-02-22T10:28:25;16.13;;;10.40;;
19679;SDS011;9989;48.962;9.182;2023-02-22T10:30:57;16.53;;;10.43;;
19679;SDS011;9989;48.962;9.182;2023-02-22T10:33:28;16.97;;;10.23;;
19679;SDS011;9989;48.962;9.182;2023-02-22T10:35:57;16.20;;;9.80;;
19679;SDS011;9989;48.962;9.182;2023-02-22T10:38:31;12.03;;;8.53;;
19679;SDS011;9989;48.962;9.182;2023-02-22T10:41:00;14.43;;;9.10;;
19679;SDS011;9989;48.962;9.182;2023-02-22T10:43:33;13.10;;;9.50;;
19679;SDS011;9989;48.962;9.182;2023-02-22T10:46:02;13.30;;;9.40;;
19679;SDS011;9989;48.962;9.182;2023-02-22T10:48:31;13.00;;;8.33;;
19679;SDS011;9989;48.962;9.182;2023-02-22T10:51:03;14.40;;;9.20;;
19679;SDS011;9989;48.962;9.182;2023-02-22T10:53:32;13.17;;;9.10;;
19679;SDS011;9989;48.962;9.182;2023-02-22T11:01:20;12.80;;;8.77;;
19679;SDS011;9989;48.962;9.182;2023-02-22T11:04:15;14.07;;;8.40;;
19679;SDS011;9989;48.962;9.182;2023-02-22T11:06:47;12.43;;;8.80;;
19679;SDS011;9989;48.962;9.182;2023-02-22T11:09:22;11.97;;;9.10;;
19679;SDS011;9989;48.962;9.182;2023-02-22T11:11:48;13.37;;;9.23;;
19679;SDS011;9989;48.962;9.182;2023-02-22T11:14:30;14.80;;;10.67;;
19679;SDS011;9989;48.962;9.182;2023-02-22T11:16:56;11.80;;;8.30;;
19679;SDS011;9989;48.962;9.182;2023-02-22T11:19:25;15.37;;;8.17;;
19679;SDS011;9989;48.962;9.182;2023-02-22T11:21:54;15.20;;;7.87;;
19679;SDS011;9989;48.962;9.182;2023-02-22T11:24:22;12.37;;;8.00;;
19679;SDS011;9989;48.962;9.182;2023-02-22T11:26:54;13.13;;;8.47;;
19679;SDS011;9989;48.962;9.182;2023-02-22T11:32:02;12.00;;;8.37;;
19679;SDS011;9989;48.962;9.182;2023-02-22T11:34:39;16.87;;;11.00;;
19679;SDS011;9989;48.962;9.182;2023-02-22T11:40:04;16.37;;;9.23;;
19679;SDS011;9989;48.962;9.182;2023-02-22T11:42:36;14.63;;;9.80;;
19679;SDS011;9989;48.962;9.182;2023-02-22T11:45:18;15.50;;;9.87;;
19679;SDS011;9989;48.962;9.182;2023-02-22T11:47:58;14.23;;;9.57;;
19679;SDS011;9989;48.962;9.182;2023-02-22T11:56:51;17.20;;;9.63;;
19679;SDS011;9989;48.962;9.182;2023-02-22T11:59:17;14.20;;;9.10;;
19679;SDS011;9989;48.962;9.182;2023-02-22T12:01:55;14.97;;;8.90;;
19679;SDS011;9989;48.962;9.182;2023-02-22T12:09:52;14.57;;;8.57;;
19679;SDS011;9989;48.962;9.182;2023-02-22T12:15:09;15.10;;;11.00;;
19679;SDS011;9989;48.962;9.182;2023-02-22T12:22:53;15.73;;;9.80;;
19679;SDS011;9989;48.962;9.182;2023-02-22T12:25:46;13.27;;;8.70;;
19679;SDS011;9989;48.962;9.182;2023-02-22T12:28:24;15.23;;;9.93;;
19679;SDS011;9989;48.962;9.182;2023-02-22T12:31:16;16.40;;;10.57;;
19679;SDS011;9989;48.962;9.182;2023-02-22T12:34:02;14.47;;;11.13;;
19679;SDS011;9989;48.962;9.182;2023-02-22T12:36:42;20.00;;;11.73;;
19679;SDS011;9989;48.962;9.182;2023-02-22T12:39:26;11.97;;;7.90;;
19679;SDS011;9989;48.962;9.182;2023-02-22T12:41:57;11.40;;;7.60;;
19679;SDS011;9989;48.962;9.182;2023-02-22T12:44:44;14.17;;;8.97;;
19679;SDS011;9989;48.962;9.182;2023-02-22T12:47:17;14.10;;;9.50;;
19679;SDS011;9989;48.962;9.182;2023-02-22T12:49:47;13.70;;;7.80;;
19679;SDS011;9989;48.962;9.182;2023-02-22T12:52:38;13.40;;;8.03;;
19679;SDS011;9989;48.962;9.182;2023-02-22T12:55:25;14.60;;;8.83;;
19679;SDS011;9989;48.962;9.182;2023-02-22T12:58:06;12.57;;;8.07;;
19679;SDS011;9989;48.962;9.182;2023-02-22T13:03:37;13.33;;;7.27;;
19679;SDS011;9989;48.962;9.182;2023-02-22T13:11:56;13.37;;;6.97;;
19679;SDS011;9989;48.962;9.182;2023-02-22T13:25:01;15.00;;;9.60;;
19679;SDS011;9989;48.962;9.182;2023-02-22T13:30:37;17.20;;;10.43;;
19679;SDS011;9989;48.962;9.182;2023-02-22T13:33:42;15.40;;;9.33;;
19679;SDS011;9989;48.962;9.182;2023-02-22T13:38:54;14.83;;;10.10;;
19679;SDS011;9989;48.962;9.182;2023-02-22T13:47:21;13.20;;;8.53;;
19679;SDS011;9989;48.962;9.182;2023-02-22T13:52:57;14.33;;;7.97;;
19679;SDS011;9989;48.962;9.182;2023-02-22T13:55:28;14.27;;;7.90;;
19679;SDS011;9989;48.962;9.182;2023-02-22T13:58:01;14.73;;;10.07;;
19679;SDS011;9989;48.962;9.182;2023-02-22T14:13:30;13.90;;;9.17;;
19679;SDS011;9989;48.962;9.182;2023-02-22T14:18:49;16.63;;;9.30;;
19679;SDS011;9989;48.962;9.182;2023-02-22T14:22:20;21.27;;;12.47;;
19679;SDS011;9989;48.962;9.182;2023-02-22T14:24:49;16.07;;;9.37;;
19679;SDS011;9989;48.962;9.182;2023-02-22T14:27:15;19.47;;;10.53;;
19679;SDS011;9989;48.962;9.182;2023-02-22T14:29:57;16.73;;;10.33;;
19679;SDS011;9989;48.962;9.182;2023-02-22T14:32:31;15.07;;;8.40;;
19679;SDS011;9989;48.962;9.182;2023-02-22T14:35:19;15.93;;;9.53;;
19679;SDS011;9989;48.962;9.182;2023-02-22T14:37:53;17.53;;;10.53;;
19679;SDS011;9989;48.962;9.182;2023-02-22T14:45:26;15.33;;;8.80;;
19679;SDS011;9989;48.962;9.182;2023-02-22T14:55:38;20.00;;;10.43;;
19679;SDS011;9989;48.962;9.182;2023-02-22T14:58:14;14.00;;;9.03;;
19679;SDS011;9989;48.962;9.182;2023-02-22T15:00:45;16.10;;;8.03;;
19679;SDS011;9989;48.962;9.182;2023-02-22T15:06:20;17.07;;;10.63;;
19679;SDS011;9989;48.962;9.182;2023-02-22T15:08:48;18.10;;;10.53;;
19679;SDS011;9989;48.962;9.182;2023-02-22T15:11:30;13.90;;;8.33;;
19679;SDS011;9989;48.962;9.182;2023-02-22T15:13:59;17.50;;;10.30;;
19679;SDS011;9989;48.962;9.182;2023-02-22T15:16:27;18.93;;;9.40;;
19679;SDS011;9989;48.962;9.182;2023-02-22T15:18:59;16.43;;;10.33;;
19679;SDS011;9989;48.962;9.182;2023-02-22T15:21:30;14.70;;;8.87;;
19679;SDS011;9989;48.962;9.182;2023-02-22T15:24:01;13.83;;;8.30;;
19679;SDS011;9989;48.962;9.182;2023-02-22T15:26:41;16.57;;;9.27;;
19679;SDS011;9989;48.962;9.182;2023-02-22T15:31:39;14.53;;;8.17;;
19679;SDS011;9989;48.962;9.182;2023-02-22T15:36:44;17.47;;;9.07;;
19679;SDS011;9989;48.962;9.182;2023-02-22T15:39:44;19.30;;;8.77;;
19679;SDS011;9989;48.962;9.182;2023-02-22T15:44:38;14.30;;;8.70;;
19679;SDS011;9989;48.962;9.182;2023-02-22T15:47:06;16.13;;;8.43;;
19679;SDS011;9989;48.962;9.182;2023-02-22T15:49:37;18.00;;;9.33;;
19679;SDS011;9989;48.962;9.182;2023-02-22T15:52:07;19.67;;;10.23;;
19679;SDS011;9989;48.962;9.182;2023-02-22T15:54:45;20.57;;;11.37;;
19679;SDS011;9989;48.962;9.182;2023-02-22T15:57:14;13.37;;;8.43;;
19679;SDS011;9989;48.962;9.182;2023-02-22T15:59:51;17.90;;;9.00;;
19679;SDS011;9989;48.962;9.182;2023-02-22T16:02:23;20.00;;;9.90;;
19679;SDS011;9989;48.962;9.182;2023-02-22T16:04:59;17.30;;;10.03;;
19679;SDS011;9989;48.962;9.182;2023-02-22T16:07:37;17.70;;;9.77;;
19679;SDS011;9989;48.962;9.182;2023-02-22T16:10:16;14.50;;;9.10;;
19679;SDS011;9989;48.962;9.182;2023-02-22T16:13:03;15.83;;;8.73;;
19679;SDS011;9989;48.962;9.182;2023-02-22T16:15:56;14.03;;;8.60;;
19679;SDS011;9989;48.962;9.182;2023-02-22T16:18:27;15.93;;;8.87;;
19679;SDS011;9989;48.962;9.182;2023-02-22T16:20:59;15.93;;;9.00;;
19679;SDS011;9989;48.962;9.182;2023-02-22T16:23:30;14.27;;;9.27;;
19679;SDS011;9989;48.962;9.182;2023-02-22T16:28:52;16.00;;;8.70;;
19679;SDS011;9989;48.962;9.182;2023-02-22T16:31:23;20.03;;;9.33;;
19679;SDS011;9989;48.962;9.182;2023-02-22T16:33:55;14.73;;;8.47;;
19679;SDS011;9989;48.962;9.182;2023-02-22T16:36:22;17.10;;;9.03;;
19679;SDS011;9989;48.962;9.182;2023-02-22T16:38:59;14.87;;;8.37;;
19679;SDS011;9989;48.962;9.182;2023-02-22T16:41:25;13.70;;;8.40;;
19679;SDS011;9989;48.962;9.182;2023-02-22T16:43:50;15.90;;;8.37;;
19679;SDS011;9989;48.962;9.182;2023-02-22T16:46:18;17.77;;;8.80;;
19679;SDS011;9989;48.962;9.182;2023-02-22T16:48:43;14.93;;;8.37;;
19679;SDS011;9989;48.962;9.182;2023-02-22T16:51:17;15.70;;;9.37;;
19679;SDS011;9989;48.962;9.182;2023-02-22T16:53:49;16.03;;;8.27;;
19679;SDS011;9989;48.962;9.182;2023-02-22T16:56:18;16.40;;;8.73;;
19679;SDS011;9989;48.962;9.182;2023-02-22T16:58:45;20.17;;;9.27;;
19679;SDS011;9989;48.962;9.182;2023-02-22T17:01:14;16.10;;;9.70;;
19679;SDS011;9989;48.962;9.182;2023-02-22T17:03:40;16.27;;;10.20;;
19679;SDS011;9989;48.962;9.182;2023-02-22T17:06:06;17.70;;;11.13;;
19679;SDS011;9989;48.962;9.182;2023-02-22T17:08:34;17.33;;;10.17;;
19679;SDS011;9989;48.962;9.182;2023-02-22T17:11:04;19.27;;;11.43;;
19679;SDS011;9989;48.962;9.182;2023-02-22T17:13:31;19.20;;;11.60;;
19679;SDS011;9989;48.962;9.182;2023-02-22T17:15:59;19.23;;;10.93;;
19679;SDS011;9989;48.962;9.182;2023-02-22T17:18:25;20.07;;;11.27;;
19679;SDS011;9989;48.962;9.182;2023-02-22T17:20:52;17.70;;;10.03;;
19679;SDS011;9989;48.962;9.182;2023-02-22T17:23:19;27.37;;;14.07;;
19679;SDS011;9989;48.962;9.182;2023-02-22T17:28:17;20.33;;;11.67;;
19679;SDS011;9989;48.962;9.182;2023-02-22T17:30:43;19.10;;;10.57;;
19679;SDS011;9989;48.962;9.182;2023-02-22T17:33:13;19.93;;;10.47;;
19679;SDS011;9989;48.962;9.182;2023-02-22T17:35:41;17.83;;;10.37;;
19679;SDS011;9989;48.962;9.182;2023-02-22T17:38:08;19.57;;;11.10;;
19679;SDS011;9989;48.962;9.182;2023-02-22T17:40:34;20.00;;;11.03;;
19679;SDS011;9989;48.962;9.182;2023-02-22T17:43:02;18.60;;;10.67;;
19679;SDS011;9989;48.962;9.182;2023-02-22T17:45:28;22.07;;;11.27;;
19679;SDS011;9989;48.962;9.182;2023-02-22T17:47:54;19.13;;;11.00;;
19679;SDS011;9989;48.962;9.182;2023-02-22T17:50:22;18.17;;;10.67;;